Time;durP1;ratioP1;P1;durP2;ratioP2;P2;SDS_P1;SDS_P2;PMS_P1;PMS_P2;Temp;Humidity;BMP_temperature;BMP_pressure;BME280_temperature;BME280_humidity;BME280_pressure;Samples;Min_cycle;Max_cycle;Signal;HPM_P1;HPM_P2
2022/11/21 00:00:12;;;;;;;2.70;0.90;;;6.00;91.70;;;;;;5045127;28;20041;-60
2022/11/21 00:02:41;;;;;;;3.10;0.75;;;6.10;91.70;;;;;;5039229;28;20475;-59
2022/11/21 00:05:14;;;;;;;3.63;0.80;;;6.10;91.70;;;;;;5046330;28;20506;-58
2022/11/21 00:07:51;;;;;;;3.58;0.63;;;6.00;91.60;;;;;;5048413;28;20045;-59
2022/11/21 00:10:18;;;;;;;4.28;0.98;;;6.00;91.70;;;;;;5048972;28;20051;-59
2022/11/21 00:12:45;;;;;;;3.45;0.90;;;6.00;91.70;;;;;;5051591;28;20045;-58
2022/11/21 00:15:12;;;;;;;2.85;0.70;;;6.10;91.70;;;;;;5045027;28;20188;-59
2022/11/21 00:17:43;;;;;;;2.78;1.15;;;6.10;91.70;;;;;;5050973;28;20049;-58
2022/11/21 00:20:17;;;;;;;1.52;0.60;;;6.10;91.70;;;;;;5048701;28;20040;-58
2022/11/21 00:22:44;;;;;;;2.22;0.65;;;6.10;91.60;;;;;;5048989;28;20160;-58
2022/11/21 00:25:11;;;;;;;4.60;0.80;;;6.10;91.70;;;;;;5049045;28;21900;-58
2022/11/21 00:27:38;;;;;;;4.22;1.00;;;6.10;91.60;;;;;;5049691;28;20140;-59
2022/11/21 00:30:10;;;;;;;4.63;0.70;;;6.10;91.60;;;;;;5045653;28;20052;-58
2022/11/21 00:32:37;;;;;;;3.20;0.80;;;6.10;91.60;;;;;;5051885;28;20498;-60
2022/11/21 00:35:07;;;;;;;1.88;0.70;;;6.10;91.60;;;;;;5049854;28;20059;-58
2022/11/21 00:37:34;;;;;;;3.55;0.52;;;6.20;91.50;;;;;;5049896;28;20045;-60
2022/11/21 00:40:01;;;;;;;1.85;0.70;;;6.10;91.50;;;;;;5034889;28;20041;-59
2022/11/21 00:42:28;;;;;;;1.80;0.80;;;6.10;91.50;;;;;;5049513;28;20041;-59
2022/11/21 00:44:55;;;;;;;3.70;0.60;;;6.10;91.50;;;;;;5048462;28;20498;-59
2022/11/21 00:47:22;;;;;;;4.25;0.55;;;6.10;91.60;;;;;;5048099;28;20041;-58
2022/11/21 00:49:49;;;;;;;2.60;0.70;;;6.10;91.60;;;;;;5046809;28;20033;-59
2022/11/21 00:52:18;;;;;;;1.10;0.50;;;6.10;91.60;;;;;;5048449;28;20076;-59
2022/11/21 00:54:45;;;;;;;2.15;0.60;;;6.10;91.60;;;;;;5050832;28;20071;-59
2022/11/21 00:57:12;;;;;;;2.75;0.77;;;6.10;91.50;;;;;;5048546;28;20466;-59
2022/11/21 00:59:45;;;;;;;;;;;6.10;91.60;;;;;;5049106;28;20045;-59
2022/11/21 01:02:12;;;;;;;2.97;1.00;;;6.10;91.60;;;;;;5049477;28;19929;-58
2022/11/21 01:04:39;;;;;;;1.35;0.60;;;6.10;91.60;;;;;;5046511;28;20045;-58
2022/11/21 01:07:08;;;;;;;2.45;0.60;;;6.10;91.50;;;;;;5046966;28;20091;-68
2022/11/21 01:09:36;;;;;;;1.77;0.70;;;6.10;91.60;;;;;;5047267;28;20055;-68
2022/11/21 01:12:04;;;;;;;4.55;0.90;;;6.10;91.40;;;;;;5048028;28;20048;-68
2022/11/21 01:14:31;;;;;;;4.30;0.90;;;6.10;91.40;;;;;;5045548;28;20490;-68
2022/11/21 01:16:57;;;;;;;4.72;0.70;;;6.10;91.30;;;;;;5043428;28;20049;-64
2022/11/21 01:19:24;;;;;;;1.95;0.70;;;6.10;91.50;;;;;;5045704;28;20041;-63
2022/11/21 01:21:54;;;;;;;1.95;0.65;;;6.10;91.40;;;;;;5047008;28;20758;-64
2022/11/21 01:24:24;;;;;;;2.15;0.70;;;6.10;91.40;;;;;;5044890;28;20037;-64
2022/11/21 01:26:55;;;;;;;3.83;1.08;;;6.10;91.40;;;;;;5046173;28;20059;-64
2022/11/21 01:29:22;;;;;;;1.70;0.55;;;6.10;91.30;;;;;;5045843;28;20128;-64
2022/11/21 01:31:52;;;;;;;2.58;0.70;;;6.10;91.30;;;;;;5045958;28;20562;-65
2022/11/21 01:34:19;;;;;;;2.50;0.63;;;6.10;91.20;;;;;;5044852;28;20442;-65
2022/11/21 01:36:48;;;;;;;2.22;0.77;;;6.10;91.20;;;;;;5047235;28;20049;-62
2022/11/21 01:39:14;;;;;;;1.40;0.43;;;6.10;91.20;;;;;;5047265;28;20053;-62
2022/11/21 01:41:43;;;;;;;1.85;0.50;;;6.10;91.10;;;;;;5047027;28;20048;-61
2022/11/21 01:44:19;;;;;;;2.83;0.68;;;6.10;91.20;;;;;;5048226;28;20041;-62
2022/11/21 01:46:46;;;;;;;3.22;0.98;;;6.10;91.10;;;;;;5046443;28;20041;-59
2022/11/21 01:49:17;;;;;;;2.15;0.45;;;6.10;91.20;;;;;;5046311;28;20144;-59
2022/11/21 01:51:53;;;;;;;3.22;0.52;;;6.10;91.10;;;;;;5041973;28;20052;-60
2022/11/21 01:54:24;;;;;;;2.97;0.93;;;6.10;91.10;;;;;;5041406;28;20041;-58
2022/11/21 01:56:57;;;;;;;4.50;0.68;;;6.10;91.10;;;;;;5048799;28;20564;-58
2022/11/21 01:59:32;;;;;;;3.40;0.68;;;6.10;91.10;;;;;;5044169;28;20491;-59
2022/11/21 02:02:04;;;;;;;1.42;0.50;;;6.20;91.10;;;;;;5045074;28;20045;-61
2022/11/21 02:04:33;;;;;;;1.35;0.60;;;6.10;91.10;;;;;;5049472;28;20801;-60
2022/11/21 02:07:04;;;;;;;4.28;0.70;;;6.10;91.10;;;;;;5049052;28;20060;-62
2022/11/21 02:09:32;;;;;;;;;;;6.10;91.10;;;;;;5047873;28;20137;-60
2022/11/21 02:12:03;;;;;;;3.10;0.65;;;6.10;91.00;;;;;;5048112;28;19951;-60
2022/11/21 02:14:33;;;;;;;5.95;0.70;;;6.10;91.00;;;;;;5044769;28;20037;-60
2022/11/21 02:17:04;;;;;;;5.65;0.77;;;6.10;91.10;;;;;;5043079;28;20127;-60
2022/11/21 02:19:43;;;;;;;3.42;0.75;;;6.20;91.10;;;;;;5046642;28;20051;-59
2022/11/21 02:22:20;;;;;;;3.45;0.68;;;6.20;91.10;;;;;;5043909;28;20539;-59
2022/11/21 02:24:57;;;;;;;3.25;0.73;;;6.20;91.20;;;;;;5044332;28;20048;-60
2022/11/21 02:27:24;;;;;;;3.10;0.75;;;6.10;91.10;;;;;;5047816;28;20115;-64
2022/11/21 02:29:51;;;;;;;3.55;0.70;;;6.10;91.20;;;;;;5042063;28;20080;-64
2022/11/21 02:32:21;;;;;;;3.88;1.40;;;6.20;91.20;;;;;;5047836;28;20088;-64
2022/11/21 02:34:48;;;;;;;2.25;0.65;;;6.20;91.20;;;;;;5046937;28;20139;-63
2022/11/21 02:37:16;;;;;;;5.63;0.90;;;6.10;91.20;;;;;;5046514;28;20103;-64
2022/11/21 02:39:44;;;;;;;5.88;0.65;;;6.20;91.20;;;;;;5049400;28;20044;-63
2022/11/21 02:42:17;;;;;;;4.03;1.27;;;6.10;91.20;;;;;;5044400;28;20404;-61
2022/11/21 02:44:49;;;;;;;4.20;0.70;;;6.10;91.20;;;;;;5050321;28;20036;-61
2022/11/21 02:47:16;;;;;;;3.47;0.70;;;6.10;91.20;;;;;;5046905;28;20040;-61
2022/11/21 02:49:50;;;;;;;2.63;1.02;;;6.10;91.20;;;;;;5044478;28;20407;-60
2022/11/21 02:52:17;;;;;;;2.90;0.77;;;6.10;91.20;;;;;;5046458;28;20049;-61
2022/11/21 02:54:44;;;;;;;3.90;0.82;;;6.20;91.20;;;;;;5046613;28;20064;-60
2022/11/21 02:57:12;;;;;;;3.20;0.70;;;6.20;91.10;;;;;;5047000;28;20045;-60
2022/11/21 02:59:39;;;;;;;4.38;0.98;;;6.20;91.10;;;;;;5037924;28;20063;-60
2022/11/21 03:02:06;;;;;;;6.47;0.90;;;6.20;91.20;;;;;;5042795;28;20587;-61
2022/11/21 03:04:33;;;;;;;5.53;1.52;;;6.20;91.20;;;;;;5046025;28;20045;-62
2022/11/21 03:07:00;;;;;;;6.68;1.10;;;6.20;91.20;;;;;;5046411;28;20048;-63
2022/11/21 03:09:27;;;;;;;3.30;1.05;;;6.20;91.30;;;;;;5043548;28;20057;-61
2022/11/21 03:11:54;;;;;;;3.15;0.93;;;6.20;91.30;;;;;;5048047;28;20053;-63
2022/11/21 03:14:23;;;;;;;5.20;0.95;;;6.20;91.20;;;;;;5046691;28;20601;-63
2022/11/21 03:16:50;;;;;;;4.55;0.80;;;6.20;91.20;;;;;;5043289;28;20128;-62
2022/11/21 03:19:17;;;;;;;4.35;0.90;;;6.20;91.30;;;;;;5044443;28;20077;-64
2022/11/21 03:21:44;;;;;;;2.90;1.02;;;6.20;91.20;;;;;;5044799;28;20157;-62
2022/11/21 03:24:11;;;;;;;4.40;0.75;;;6.20;91.20;;;;;;5043676;28;20045;-62
2022/11/21 03:26:37;;;;;;;5.40;0.98;;;6.30;91.20;;;;;;5040522;28;20147;-62
2022/11/21 03:29:04;;;;;;;7.20;1.58;;;6.30;91.20;;;;;;5048013;28;20041;-62
2022/11/21 03:31:33;;;;;;;3.80;0.93;;;6.30;91.30;;;;;;5048162;28;20044;-62
2022/11/21 03:33:59;;;;;;;5.47;1.42;;;6.30;91.30;;;;;;5047933;28;20037;-62
2022/11/21 03:36:26;;;;;;;3.63;1.17;;;6.30;91.20;;;;;;5044110;28;20048;-63
2022/11/21 03:38:55;;;;;;;3.17;1.20;;;6.30;91.20;;;;;;5048640;28;20052;-62
2022/11/21 03:41:31;;;;;;;5.40;1.20;;;6.30;91.30;;;;;;5046320;28;20507;-62
2022/11/21 03:43:58;;;;;;;5.90;1.63;;;6.30;91.20;;;;;;5049872;28;20402;-62
2022/11/21 03:46:26;;;;;;;5.35;1.05;;;6.30;91.10;;;;;;5050018;28;20415;-61
2022/11/21 03:48:54;;;;;;;5.53;0.98;;;6.30;91.20;;;;;;5050008;28;20037;-62
2022/11/21 03:51:21;;;;;;;5.95;2.85;;;6.30;91.10;;;;;;5049952;28;20514;-69
2022/11/21 03:53:48;;;;;;;6.00;1.25;;;6.30;91.20;;;;;;5053206;28;20060;-70
2022/11/21 03:56:15;;;;;;;7.95;1.45;;;6.30;91.10;;;;;;5050089;28;20039;-60
2022/11/21 03:58:42;;;;;;;5.85;1.40;;;6.30;91.10;;;;;;5051028;28;20988;-61
2022/11/21 04:01:11;;;;;;;6.13;1.20;;;6.30;91.10;;;;;;5052362;28;20048;-60
2022/11/21 04:03:39;;;;;;;6.43;1.30;;;6.30;91.20;;;;;;5048583;28;20553;-60
2022/11/21 04:06:07;;;;;;;7.47;1.35;;;6.30;91.10;;;;;;5047942;28;20048;-60
2022/11/21 04:08:34;;;;;;;7.18;1.45;;;6.30;91.20;;;;;;5052400;28;20083;-61
2022/11/21 04:11:01;;;;;;;5.53;1.00;;;6.30;91.00;;;;;;5048653;28;20487;-69
2022/11/21 04:13:28;;;;;;;5.47;1.02;;;6.30;91.10;;;;;;5051857;28;20049;-69
2022/11/21 04:15:55;;;;;;;8.90;1.38;;;6.30;91.10;;;;;;5047409;28;20049;-60
2022/11/21 04:18:22;;;;;;;6.72;1.40;;;6.30;91.20;;;;;;5047943;28;20120;-60
2022/11/21 04:20:49;;;;;;;5.93;1.42;;;6.30;91.00;;;;;;5049856;28;20052;-61
2022/11/21 04:23:18;;;;;;;4.93;1.33;;;6.30;91.30;;;;;;5048998;28;20049;-61
2022/11/21 04:25:44;;;;;;;3.95;0.90;;;6.30;91.20;;;;;;5047350;28;20052;-64
2022/11/21 04:28:13;;;;;;;3.95;1.30;;;6.30;91.20;;;;;;5051516;28;20055;-64
2022/11/21 04:30:41;;;;;;;4.50;1.00;;;6.30;91.00;;;;;;5045499;28;20514;-59
2022/11/21 04:33:08;;;;;;;5.30;1.17;;;6.30;91.10;;;;;;5047028;28;20500;-60
2022/11/21 04:35:35;;;;;;;5.45;1.10;;;6.30;91.10;;;;;;5045053;28;20045;-62
2022/11/21 04:38:02;;;;;;;9.80;1.90;;;6.30;91.10;;;;;;5045475;28;20045;-62
2022/11/21 04:40:32;;;;;;;6.07;1.10;;;6.30;91.20;;;;;;5047874;28;20056;-62
2022/11/21 04:42:59;;;;;;;9.10;1.65;;;6.30;91.20;;;;;;5045877;28;20077;-62
2022/11/21 04:45:26;;;;;;;5.63;1.17;;;6.30;91.10;;;;;;5043455;28;20056;-69
2022/11/21 04:47:53;;;;;;;4.22;1.00;;;6.30;91.00;;;;;;5045851;28;20068;-68
2022/11/21 04:50:20;;;;;;;5.65;1.30;;;6.30;91.00;;;;;;5047445;28;20049;-69
2022/11/21 04:52:50;;;;;;;5.03;1.25;;;6.30;91.00;;;;;;5047167;28;20127;-69
2022/11/21 04:55:17;;;;;;;6.00;1.40;;;6.20;91.00;;;;;;5048392;28;20079;-60
2022/11/21 04:57:45;;;;;;;6.30;1.27;;;6.30;90.90;;;;;;5049505;28;20052;-60
2022/11/21 05:00:14;;;;;;;7.40;1.33;;;6.30;91.10;;;;;;5046734;28;20099;-68
2022/11/21 05:02:41;;;;;;;6.90;1.40;;;6.30;91.00;;;;;;5047687;28;20071;-69
2022/11/21 05:05:08;;;;;;;5.90;1.57;;;6.30;91.00;;;;;;5008136;28;1125527;-68
2022/11/21 05:07:35;;;;;;;7.50;1.63;;;6.30;91.10;;;;;;5051009;28;20065;-69
2022/11/21 05:10:03;;;;;;;6.18;1.30;;;6.30;91.00;;;;;;5047635;28;20483;-69
2022/11/21 05:15:16;;;;;;;4.72;1.10;;;6.30;91.00;;;;;;5049227;28;20115;-68
2022/11/21 05:17:43;;;;;;;5.47;1.48;;;6.30;91.10;;;;;;5049204;28;20139;-69
2022/11/21 05:20:13;;;;;;;4.35;1.08;;;6.30;91.00;;;;;;5050730;28;20041;-69
2022/11/21 05:22:40;;;;;;;6.20;1.17;;;6.30;91.00;;;;;;5049174;28;20049;-68
2022/11/21 05:25:08;;;;;;;5.75;1.30;;;6.30;90.80;;;;;;5047517;28;20091;-69
2022/11/21 05:27:35;;;;;;;5.13;1.20;;;6.30;90.90;;;;;;5046553;28;20080;-68
2022/11/21 05:30:02;;;;;;;5.20;1.20;;;6.30;90.90;;;;;;5048872;28;20498;-70
2022/11/21 05:32:32;;;;;;;5.80;1.13;;;6.30;90.90;;;;;;5048643;28;20525;-69
2022/11/21 05:34:59;;;;;;;6.50;1.40;;;6.30;91.00;;;;;;5049829;28;20045;-70
2022/11/21 05:37:27;;;;;;;5.20;1.40;;;6.30;90.90;;;;;;5043829;28;20056;-69
2022/11/21 05:39:53;;;;;;;7.47;1.77;;;6.30;91.00;;;;;;5050128;28;20076;-69
2022/11/21 05:43:44;;;;;;;6.38;1.23;;;6.30;90.80;;;;;;5047546;28;20073;-60
2022/11/21 05:45:08;;;;;;;5.10;1.13;;;6.30;90.80;;;;;;5047356;28;20094;-60
2022/11/21 05:47:36;;;;;;;4.47;1.55;;;6.30;90.80;;;;;;5050094;28;20060;-60
2022/11/21 05:50:04;;;;;;;5.63;1.20;;;6.30;90.90;;;;;;5049287;28;20048;-59
2022/11/21 05:52:32;;;;;;;4.70;1.45;;;6.30;90.90;;;;;;5050667;28;20045;-60
2022/11/21 05:54:59;;;;;;;6.53;2.20;;;6.30;90.80;;;;;;5051259;28;20045;-60
2022/11/21 05:57:26;;;;;;;3.65;1.00;;;6.30;90.80;;;;;;5048915;28;21255;-59
2022/11/21 05:59:53;;;;;;;7.47;1.23;;;6.30;91.00;;;;;;5045870;28;20449;-61
2022/11/21 06:05:07;;;;;;;4.03;1.10;;;6.20;91.10;;;;;;5029200;28;20049;-60
2022/11/21 06:07:33;;;;;;;5.05;1.60;;;6.30;91.00;;;;;;5049229;28;20052;-62
2022/11/21 06:10:00;;;;;;;4.47;1.33;;;6.30;90.90;;;;;;5048139;28;20068;-60
2022/11/21 06:12:27;;;;;;;6.13;1.83;;;6.30;91.00;;;;;;5043968;28;20050;-59
2022/11/21 06:14:54;;;;;;;5.20;1.17;;;6.30;91.00;;;;;;5047404;28;20124;-61
2022/11/21 06:17:21;;;;;;;5.72;1.60;;;6.30;91.10;;;;;;5045587;28;20045;-68
2022/11/21 06:19:48;;;;;;;8.38;2.00;;;6.30;90.90;;;;;;5046424;28;20099;-68
2022/11/21 06:22:16;;;;;;;6.03;1.67;;;6.30;90.90;;;;;;5046905;28;20037;-61
2022/11/21 06:24:43;;;;;;;10.95;1.85;;;6.20;90.90;;;;;;5046184;28;20124;-62
2022/11/21 06:27:10;;;;;;;5.47;1.75;;;6.20;90.90;;;;;;5047001;28;20471;-64
2022/11/21 06:29:37;;;;;;;4.07;1.50;;;6.20;90.90;;;;;;5046444;28;20052;-63
2022/11/21 06:32:04;;;;;;;4.60;1.52;;;6.20;90.90;;;;;;5044028;28;20037;-64
2022/11/21 06:34:30;;;;;;;6.85;1.48;;;6.20;90.90;;;;;;5028155;28;20049;-64
2022/11/21 06:36:58;;;;;;;6.88;1.90;;;6.30;90.90;;;;;;5043996;28;20410;-64
2022/11/21 06:39:26;;;;;;;4.45;1.20;;;6.20;90.90;;;;;;5047493;28;20044;-64
2022/11/21 06:41:53;;;;;;;4.82;1.55;;;6.20;91.10;;;;;;5042677;28;20052;-64
2022/11/21 06:44:20;;;;;;;7.63;1.92;;;6.20;91.10;;;;;;5045484;28;20060;-63
2022/11/21 06:46:47;;;;;;;5.68;1.38;;;6.20;91.20;;;;;;5044808;28;20045;-60
2022/11/21 06:49:14;;;;;;;4.63;1.77;;;6.30;91.30;;;;;;5048417;28;20141;-61
2022/11/21 06:51:41;;;;;;;5.40;1.75;;;6.20;91.30;;;;;;5046368;28;20048;-60
2022/11/21 06:54:08;;;;;;;8.25;1.95;;;6.20;91.20;;;;;;5040799;28;20067;-60
2022/11/21 06:56:36;;;;;;;8.80;2.13;;;6.30;91.30;;;;;;5044997;28;20045;-60
2022/11/21 06:59:03;;;;;;;6.55;1.80;;;6.30;91.30;;;;;;5045449;28;20047;-61
2022/11/21 07:01:30;;;;;;;6.07;1.58;;;6.30;91.30;;;;;;5044330;28;20075;-61
2022/11/21 07:03:57;;;;;;;7.57;1.95;;;6.30;91.20;;;;;;5042306;28;20530;-61
2022/11/21 07:06:24;;;;;;;6.18;1.73;;;6.30;91.10;;;;;;5044240;28;21218;-62
2022/11/21 07:08:53;;;;;;;5.50;1.60;;;6.30;91.20;;;;;;5045203;28;20385;-62
2022/11/21 07:11:20;;;;;;;5.65;1.83;;;6.30;91.30;;;;;;5045602;28;20905;-60
2022/11/21 07:13:47;;;;;;;5.25;1.83;;;6.30;91.20;;;;;;5042822;28;20049;-61
2022/11/21 07:16:14;;;;;;;3.60;1.20;;;6.30;91.20;;;;;;5043574;28;20071;-66
2022/11/21 07:18:42;;;;;;;6.35;1.20;;;6.30;91.20;;;;;;5044836;28;20353;-65
2022/11/21 07:21:09;;;;;;;7.80;1.65;;;6.30;91.00;;;;;;5047277;28;20055;-64
2022/11/21 07:23:36;;;;;;;6.75;1.17;;;6.30;90.90;;;;;;5045239;28;20052;-64
2022/11/21 07:26:04;;;;;;;4.35;1.42;;;6.30;90.80;;;;;;5049669;28;20049;-64
2022/11/21 07:28:32;;;;;;;4.25;1.20;;;6.30;90.90;;;;;;5045461;28;20052;-64
2022/11/21 07:31:02;;;;;;;4.55;1.08;;;6.30;91.00;;;;;;5051568;28;20041;-64
2022/11/21 07:33:31;;;;;;;3.95;1.08;;;6.40;90.90;;;;;;5051164;28;20555;-64
2022/11/21 07:35:58;;;;;;;3.22;1.20;;;6.40;90.70;;;;;;5047626;28;20037;-63
2022/11/21 07:38:26;;;;;;;5.65;1.00;;;6.40;90.60;;;;;;5048999;28;20045;-62
2022/11/21 07:40:53;;;;;;;5.95;1.75;;;6.40;90.70;;;;;;5047336;28;20530;-66
2022/11/21 07:43:20;;;;;;;5.43;1.27;;;6.40;90.60;;;;;;5045250;28;20411;-65
2022/11/21 07:45:47;;;;;;;5.70;1.60;;;6.40;90.60;;;;;;5047585;28;20122;-66
2022/11/21 07:48:15;;;;;;;5.80;1.30;;;6.40;90.60;;;;;;5046273;28;20055;-65
2022/11/21 07:50:42;;;;;;;4.70;1.30;;;6.40;90.70;;;;;;5042992;28;20045;-60
2022/11/21 07:53:11;;;;;;;3.50;1.13;;;6.40;90.60;;;;;;5044988;28;20055;-59
2022/11/21 07:55:38;;;;;;;3.78;0.90;;;6.40;90.60;;;;;;5042701;28;20052;-63
2022/11/21 07:58:06;;;;;;;5.38;1.15;;;6.40;90.60;;;;;;5043151;28;20245;-63
2022/11/21 08:00:38;;;;;;;4.65;1.10;;;6.40;90.50;;;;;;5041995;28;20131;-61
2022/11/21 08:03:06;;;;;;;3.38;1.00;;;6.50;90.70;;;;;;5045744;28;20585;-62
2022/11/21 08:05:38;;;;;;;5.25;1.65;;;6.50;90.50;;;;;;5044224;28;20126;-62
2022/11/21 08:08:05;;;;;;;5.50;1.02;;;6.50;90.50;;;;;;5043418;28;20037;-62
2022/11/21 08:10:32;;;;;;;4.50;1.30;;;6.40;90.40;;;;;;5043362;28;20428;-63
2022/11/21 08:12:59;;;;;;;5.18;1.10;;;6.50;90.50;;;;;;5044359;28;20107;-62
2022/11/21 08:15:26;;;;;;;5.15;1.30;;;6.50;90.60;;;;;;5042504;28;20156;-69
2022/11/21 08:17:53;;;;;;;3.75;1.00;;;6.50;90.70;;;;;;5041787;28;20133;-70
2022/11/21 08:20:20;;;;;;;4.50;1.08;;;6.50;90.60;;;;;;5044831;28;20029;-69
2022/11/21 08:22:48;;;;;;;2.38;0.95;;;6.50;90.60;;;;;;5043945;28;20514;-70
2022/11/21 08:25:16;;;;;;;5.80;1.20;;;6.50;90.50;;;;;;5048171;28;20135;-70
2022/11/21 08:27:43;;;;;;;2.38;0.95;;;6.50;90.50;;;;;;5047675;28;20080;-70
2022/11/21 08:30:11;;;;;;;4.57;1.40;;;6.60;90.50;;;;;;5049099;28;20044;-70
2022/11/21 08:32:38;;;;;;;5.63;1.73;;;6.60;90.60;;;;;;5048543;28;20597;-69
2022/11/21 08:35:06;;;;;;;2.97;1.23;;;6.60;90.40;;;;;;5047520;28;20127;-70
2022/11/21 08:37:33;;;;;;;2.63;1.20;;;6.60;90.30;;;;;;5050852;28;20068;-69
2022/11/21 08:40:02;;;;;;;4.20;1.35;;;6.70;90.40;;;;;;5046398;28;20045;-70
2022/11/21 08:42:30;;;;;;;4.28;1.30;;;6.70;90.40;;;;;;5050086;28;20045;-70
2022/11/21 08:44:57;;;;;;;4.50;1.30;;;6.70;90.30;;;;;;5050817;28;20053;-69
2022/11/21 08:47:24;;;;;;;7.55;1.30;;;6.70;90.30;;;;;;5050837;28;20045;-66
2022/11/21 08:49:50;;;;;;;4.20;1.50;;;6.70;90.30;;;;;;5050963;28;20498;-65
2022/11/21 08:52:17;;;;;;;4.88;1.35;;;6.70;90.40;;;;;;5044955;28;20041;-59
2022/11/21 08:54:44;;;;;;;3.53;0.90;;;6.70;90.40;;;;;;5050944;28;20076;-59
2022/11/21 08:57:13;;;;;;;4.10;1.00;;;6.70;90.40;;;;;;5048380;28;20116;-61
2022/11/21 08:59:40;;;;;;;4.50;1.50;;;6.70;90.30;;;;;;5047662;28;20091;-59
2022/11/21 09:02:10;;;;;;;2.80;1.20;;;6.80;90.30;;;;;;5042899;28;20132;-62
2022/11/21 09:04:37;;;;;;;2.55;1.00;;;6.70;90.30;;;;;;5047133;28;20045;-61
2022/11/21 09:07:04;;;;;;;3.72;1.02;;;6.70;90.30;;;;;;5047850;28;20055;-69
2022/11/21 09:09:31;;;;;;;5.30;1.25;;;6.80;90.30;;;;;;5047931;28;20045;-69
2022/11/21 09:11:58;;;;;;;3.45;1.08;;;6.70;90.20;;;;;;5050456;28;20060;-60
2022/11/21 09:19:57;;;;;;;3.80;1.27;;;6.80;90.20;;;;;;5050194;28;20045;-59
2022/11/21 09:22:24;;;;;;;2.58;0.90;;;6.90;90.20;;;;;;5052169;28;20057;-60
2022/11/21 09:24:51;;;;;;;5.80;1.15;;;6.90;90.20;;;;;;5049590;28;21657;-60
2022/11/21 09:27:18;;;;;;;3.28;1.10;;;6.90;90.10;;;;;;5043445;28;20053;-62
2022/11/21 09:29:47;;;;;;;4.40;1.20;;;7.00;90.00;;;;;;5049652;28;20051;-63
2022/11/21 09:32:14;;;;;;;3.95;1.00;;;7.00;90.00;;;;;;5048369;28;20091;-60
2022/11/21 09:34:41;;;;;;;3.67;0.95;;;7.00;89.90;;;;;;5045403;28;20124;-59
2022/11/21 09:37:08;;;;;;;3.67;1.00;;;7.00;90.00;;;;;;5047660;28;20084;-61
2022/11/21 09:39:35;;;;;;;3.35;1.02;;;7.00;90.00;;;;;;5047460;28;20049;-61
2022/11/21 09:42:20;;;;;;;2.50;0.90;;;7.00;90.00;;;;;;5042824;28;20048;-62
2022/11/21 09:45:04;;;;;;;4.82;1.20;;;6.90;90.00;;;;;;5045532;28;20049;-63
2022/11/21 09:47:33;;;;;;;3.15;1.02;;;6.90;89.90;;;;;;5048141;28;20419;-61
2022/11/21 09:50:02;;;;;;;4.07;1.60;;;6.90;90.00;;;;;;5046465;28;20064;-63
2022/11/21 09:52:37;;;;;;;3.38;1.00;;;7.00;90.00;;;;;;5045456;28;20059;-62
2022/11/21 09:55:07;;;;;;;2.55;0.98;;;7.00;90.00;;;;;;5047166;28;20158;-61
2022/11/21 09:57:35;;;;;;;3.90;1.40;;;7.00;89.80;;;;;;5044377;28;20064;-63
2022/11/21 10:00:15;;;;;;;3.58;1.15;;;7.00;89.70;;;;;;5045737;28;20213;-62
2022/11/21 10:02:42;;;;;;;4.03;1.40;;;7.10;89.60;;;;;;5046883;28;20068;-65
2022/11/21 10:05:13;;;;;;;3.30;1.27;;;7.00;89.50;;;;;;5046866;28;20199;-62
2022/11/21 10:07:41;;;;;;;3.45;1.10;;;7.10;89.50;;;;;;5043603;28;20064;-59
2022/11/21 10:10:25;;;;;;;4.63;1.23;;;7.10;89.50;;;;;;5050498;28;20047;-61
2022/11/21 10:13:14;;;;;;;2.75;0.88;;;7.10;89.60;;;;;;5046172;28;20137;-66
2022/11/21 10:15:52;;;;;;;2.10;0.85;;;7.00;89.50;;;;;;5048520;28;20045;-63
2022/11/21 10:18:49;;;;;;;3.85;1.00;;;7.00;89.50;;;;;;5048171;28;20055;-65
2022/11/21 10:21:32;;;;;;;4.70;1.10;;;7.00;89.50;;;;;;5040896;28;20051;-64
2022/11/21 10:24:16;;;;;;;3.67;0.98;;;7.10;89.50;;;;;;5050203;28;20483;-63
2022/11/21 10:26:51;;;;;;;2.50;0.85;;;7.10;89.50;;;;;;5045895;28;20123;-63
2022/11/21 10:29:24;;;;;;;4.57;1.10;;;7.20;89.40;;;;;;5047455;28;20041;-63
2022/11/21 10:31:58;;;;;;;2.60;1.00;;;7.20;89.40;;;;;;5047586;28;20041;-64
2022/11/21 10:34:30;;;;;;;2.17;0.98;;;7.20;89.30;;;;;;5045097;28;20040;-64
2022/11/21 10:37:01;;;;;;;4.13;0.90;;;7.20;89.30;;;;;;5029868;28;20052;-64
2022/11/21 10:39:37;;;;;;;2.88;1.10;;;7.20;89.20;;;;;;5046307;28;20048;-63
2022/11/21 10:42:16;;;;;;;2.10;0.80;;;7.20;89.20;;;;;;5045852;28;20053;-62
2022/11/21 10:47:33;;;;;;;3.20;1.00;;;7.30;89.10;;;;;;5047104;28;20047;-63
2022/11/21 10:50:10;;;;;;;4.20;1.10;;;7.30;89.10;;;;;;5045783;28;20053;-63
2022/11/21 10:52:45;;;;;;;2.97;1.02;;;7.40;89.10;;;;;;5049319;28;20103;-61
2022/11/21 10:55:13;;;;;;;4.55;1.52;;;7.40;89.00;;;;;;5043758;28;20131;-58
2022/11/21 10:57:45;;;;;;;6.78;2.47;;;7.60;89.00;;;;;;5047142;28;20182;-60
2022/11/21 11:00:20;;;;;;;7.28;2.13;;;7.60;88.90;;;;;;5043830;28;20398;-60
2022/11/21 11:03:06;;;;;;;5.95;2.20;;;7.60;88.90;;;;;;5049083;28;20037;-59
2022/11/21 11:05:36;;;;;;;5.97;1.83;;;7.70;88.70;;;;;;5042637;28;20064;-63
2022/11/21 11:08:07;;;;;;;5.93;1.63;;;7.70;88.70;;;;;;5045759;28;20051;-64
2022/11/21 11:10:35;;;;;;;6.18;1.50;;;7.70;88.70;;;;;;5044624;28;20423;-64
2022/11/21 11:15:59;;;;;;;4.53;1.10;;;7.70;88.50;;;;;;5043022;28;20045;-60
2022/11/21 11:18:27;;;;;;;2.50;0.60;;;7.70;88.50;;;;;;5045189;28;20129;-60
2022/11/21 11:21:12;;;;;;;3.22;1.20;;;7.70;88.50;;;;;;5042520;28;20049;-62
2022/11/21 11:23:39;;;;;;;3.63;0.95;;;7.70;88.40;;;;;;5043043;28;20041;-62
2022/11/21 11:26:23;;;;;;;3.28;1.17;;;7.80;88.40;;;;;;5040702;28;20040;-61
2022/11/21 11:28:50;;;;;;;2.90;1.13;;;7.90;88.30;;;;;;5040996;28;20063;-62
2022/11/21 11:31:17;;;;;;;2.40;1.02;;;8.10;88.00;;;;;;5044349;28;20049;-62
2022/11/21 11:33:53;;;;;;;3.03;1.15;;;8.10;87.80;;;;;;5047894;28;20522;-62
2022/11/21 11:36:35;;;;;;;3.83;1.00;;;8.20;87.60;;;;;;5047520;28;20037;-62
2022/11/21 11:39:11;;;;;;;2.65;0.93;;;8.20;87.50;;;;;;5042571;28;20067;-61
2022/11/21 11:48:02;;;;;;;5.88;1.20;;;8.20;87.30;;;;;;5046489;28;20045;-63
2022/11/21 11:50:34;;;;;;;3.28;1.20;;;8.20;87.00;;;;;;5045780;28;20057;-63
2022/11/21 11:53:10;;;;;;;1.15;0.57;;;8.20;87.10;;;;;;5046916;28;20116;-64
2022/11/21 11:55:42;;;;;;;3.30;0.95;;;8.20;87.10;;;;;;5042107;28;20049;-64
2022/11/21 11:58:18;;;;;;;2.75;0.80;;;8.20;87.20;;;;;;5046411;28;20538;-66
2022/11/21 12:00:50;;;;;;;4.03;0.90;;;8.10;87.40;;;;;;5046402;28;20065;-65
2022/11/21 12:03:21;;;;;;;3.78;0.80;;;8.20;87.20;;;;;;5047467;28;20119;-64
2022/11/21 12:06:03;;;;;;;;;;;8.20;87.30;;;;;;5051623;28;20057;-64
2022/11/21 12:08:38;;;;;;;2.85;0.85;;;8.20;87.20;;;;;;5050438;28;20397;-64
2022/11/21 12:14:07;;;;;;;4.05;1.08;;;8.10;87.10;;;;;;5047460;28;20407;-65
2022/11/21 12:16:35;;;;;;;1.75;0.75;;;8.10;87.10;;;;;;5049137;28;20053;-66
2022/11/21 12:19:07;;;;;;;3.15;1.10;;;8.10;86.90;;;;;;5052132;28;20060;-65
2022/11/21 12:21:36;;;;;;;1.92;0.70;;;8.20;86.70;;;;;;5050999;28;20052;-64
2022/11/21 12:24:04;;;;;;;2.30;0.80;;;8.10;86.80;;;;;;5046117;28;20049;-65
2022/11/21 12:26:48;;;;;;;4.30;0.98;;;8.10;87.10;;;;;;5047646;28;20513;-61
2022/11/21 12:29:29;;;;;;;2.35;0.95;;;8.10;86.70;;;;;;5046420;28;20049;-63
2022/11/21 12:32:17;;;;;;;2.55;0.90;;;8.10;86.70;;;;;;5049991;28;20059;-68
2022/11/21 12:35:08;;;;;;;5.15;1.15;;;8.10;87.20;;;;;;5047135;28;20059;-69
2022/11/21 12:37:48;;;;;;;3.90;0.90;;;8.10;86.60;;;;;;5045301;28;20135;-69
2022/11/21 12:40:33;;;;;;;2.70;0.90;;;8.10;86.90;;;;;;5042022;28;20150;-69
2022/11/21 12:43:13;;;;;;;3.08;0.75;;;8.10;86.70;;;;;;5046210;28;20047;-67
2022/11/21 12:45:50;;;;;;;2.22;0.70;;;8.10;87.00;;;;;;5040064;28;20045;-66
2022/11/21 12:54:52;;;;;;;3.85;0.90;;;8.40;87.30;;;;;;5046121;28;20049;-64
2022/11/21 12:57:20;;;;;;;3.20;0.95;;;8.40;86.40;;;;;;5050081;28;20140;-63
2022/11/21 12:59:55;;;;;;;2.55;0.90;;;8.30;86.70;;;;;;5047668;28;20053;-61
2022/11/21 13:02:30;;;;;;;3.42;0.90;;;8.30;86.60;;;;;;5050717;28;20041;-62
2022/11/21 13:04:59;;;;;;;2.90;0.63;;;8.20;86.00;;;;;;5048318;28;20715;-61
2022/11/21 13:07:30;;;;;;;3.50;0.90;;;8.20;86.10;;;;;;5049209;28;20084;-60
2022/11/21 13:10:02;;;;;;;4.22;0.77;;;8.10;86.00;;;;;;5050806;28;20041;-62
2022/11/21 13:12:37;;;;;;;2.20;0.77;;;8.10;86.00;;;;;;5045728;28;20108;-61
2022/11/21 13:15:15;;;;;;;2.25;1.00;;;8.10;86.50;;;;;;5048755;28;20110;-62
2022/11/21 13:17:47;;;;;;;3.92;0.90;;;8.10;86.30;;;;;;5046951;28;20043;-61
2022/11/21 13:20:24;;;;;;;3.05;1.10;;;8.00;86.90;;;;;;5041154;28;20052;-62
2022/11/21 13:22:57;;;;;;;2.60;1.20;;;8.00;87.40;;;;;;5044900;28;20045;-61
2022/11/21 13:25:42;;;;;;;4.05;1.60;;;8.00;86.70;;;;;;5036679;28;20045;-66
2022/11/21 13:28:39;;;;;;;5.65;1.45;;;8.00;86.50;;;;;;5047054;28;20055;-68
2022/11/21 13:31:28;;;;;;;5.65;1.33;;;8.10;88.30;;;;;;5040218;28;20068;-63
2022/11/21 13:33:55;;;;;;;6.32;1.10;;;8.20;87.90;;;;;;5045077;28;20124;-63
2022/11/21 13:36:44;;;;;;;5.18;0.98;;;8.20;87.30;;;;;;5038996;28;20049;-62
2022/11/21 13:39:33;;;;;;;3.40;1.08;;;8.30;87.60;;;;;;5041436;28;20053;-62
2022/11/21 13:44:57;;;;;;;3.45;1.23;;;8.40;86.70;;;;;;5042344;28;20077;-61
2022/11/21 13:47:54;;;;;;;3.72;0.98;;;8.40;86.90;;;;;;5045626;28;20132;-63